createdAt,value
2018-05-09T00:00:35.600Z,100528.26
2018-05-09T00:03:01.642Z,100527.70
2018-05-09T00:05:28.024Z,100534.59
2018-05-09T00:07:54.039Z,100539.84
2018-05-09T00:10:20.156Z,100538.81
2018-05-09T00:12:46.210Z,100538.17
2018-05-09T00:15:12.237Z,100539.28
2018-05-09T00:17:38.232Z,100543.37
2018-05-09T00:20:04.386Z,100546.14
2018-05-09T00:22:30.551Z,100542.70
2018-05-09T00:24:56.548Z,100540.21
2018-05-09T00:27:22.550Z,100535.83
2018-05-09T00:29:48.655Z,100530.56
2018-05-09T00:32:14.723Z,100536.86
2018-05-09T00:34:40.728Z,100538.72
2018-05-09T00:37:06.744Z,100542.64
2018-05-09T00:39:32.797Z,100548.94
2018-05-09T00:41:59.068Z,100570.17
2018-05-09T00:44:25.080Z,100581.33
2018-05-09T00:46:51.094Z,100569.61
2018-05-09T00:49:17.172Z,100567.03
2018-05-09T00:51:43.264Z,100562.26
2018-05-09T00:54:21.363Z,100560.73
2018-05-09T00:56:47.363Z,100552.23
2018-05-09T00:59:13.375Z,100558.17
2018-05-09T01:01:39.374Z,100559.17
2018-05-09T01:04:05.391Z,100565.67
2018-05-09T01:06:31.372Z,100557.47
2018-05-09T01:08:57.373Z,100541.92
2018-05-09T01:11:23.420Z,100539.30
2018-05-09T01:13:49.405Z,100547.84
2018-05-09T01:16:15.400Z,100554.77
2018-05-09T01:18:41.433Z,100557.97
2018-05-09T01:21:07.425Z,100555.98
2018-05-09T01:23:33.460Z,100558.16
2018-05-09T01:25:59.464Z,100551.92
2018-05-09T01:28:25.477Z,100562.02
2018-05-09T01:30:51.464Z,100558.30
2018-05-09T01:33:17.455Z,100555.09
2018-05-09T01:35:43.478Z,100553.84
2018-05-09T01:38:09.561Z,100552.40
2018-05-09T01:40:35.558Z,100549.27
2018-05-09T01:43:02.176Z,100546.25
2018-05-09T01:45:28.284Z,100549.13
2018-05-09T01:47:54.394Z,100558.30
2018-05-09T01:50:20.448Z,100553.62
2018-05-09T01:52:46.547Z,100557.23
2018-05-09T01:55:12.688Z,100554.23
2018-05-09T01:57:38.869Z,100555.54
2018-05-09T02:00:04.873Z,100554.09
2018-05-09T02:02:30.970Z,100564.99
2018-05-09T02:04:57.815Z,100563.52
2018-05-09T02:07:23.924Z,100575.02
2018-05-09T02:09:49.944Z,100570.84
2018-05-09T02:12:16.084Z,100574.95
2018-05-09T02:14:42.160Z,100562.52
2018-05-09T02:17:08.250Z,100564.98
2018-05-09T02:19:34.260Z,100573.95
2018-05-09T02:22:00.269Z,100570.75
2018-05-09T02:24:26.377Z,100566.94
2018-05-09T02:26:52.444Z,100561.64
2018-05-09T02:29:18.476Z,100554.31
2018-05-09T02:31:44.480Z,100558.98
2018-05-09T02:34:10.599Z,100558.38
2018-05-09T02:36:36.640Z,100559.04
2018-05-09T02:39:02.717Z,100557.20
2018-05-09T02:41:28.705Z,100551.83
2018-05-09T02:43:54.864Z,100553.04
2018-05-09T02:46:21.024Z,100557.58
2018-05-09T02:48:47.047Z,100551.18
2018-05-09T02:51:13.187Z,100560.70
2018-05-09T02:53:39.195Z,100567.19
2018-05-09T02:56:05.217Z,100567.51
2018-05-09T02:58:31.233Z,100569.83
2018-05-09T03:00:57.253Z,100561.22
2018-05-09T03:03:23.265Z,100559.77
2018-05-09T03:05:49.693Z,100556.34
2018-05-09T03:08:15.691Z,100564.61
2018-05-09T03:10:41.691Z,100570.92
2018-05-09T03:13:08.441Z,100558.97
2018-05-09T03:15:34.562Z,100549.11
2018-05-09T03:18:00.588Z,100550.55
2018-05-09T03:20:26.605Z,100542.41
2018-05-09T03:22:52.669Z,100533.92
2018-05-09T03:25:18.926Z,100534.48
2018-05-09T03:27:44.995Z,100534.32
2018-05-09T03:30:11.024Z,100533.58
2018-05-09T03:32:37.055Z,100546.08
2018-05-09T03:35:03.132Z,100549.14
2018-05-09T03:37:29.177Z,100547.28
2018-05-09T03:39:55.201Z,100546.13
2018-05-09T03:42:21.189Z,100543.20
2018-05-09T03:44:47.212Z,100546.31
2018-05-09T03:47:13.248Z,100546.97
2018-05-09T03:49:39.279Z,100544.66
2018-05-09T03:52:05.321Z,100543.50
2018-05-09T03:54:31.352Z,100543.88
2018-05-09T03:56:57.378Z,100545.40
2018-05-09T03:59:23.395Z,100542.39
2018-05-09T04:02:01.567Z,100548.00
2018-05-09T04:04:39.757Z,100547.99
2018-05-09T04:07:17.944Z,100543.77
2018-05-09T04:09:59.837Z,100547.39
2018-05-09T04:12:25.900Z,100542.94
2018-05-09T04:14:52.084Z,100544.80
2018-05-09T04:17:18.044Z,100547.80
2018-05-09T04:19:44.105Z,100546.41
2018-05-09T04:22:10.197Z,100547.39
2018-05-09T04:24:36.257Z,100551.74
2018-05-09T04:27:02.261Z,100560.63
2018-05-09T04:29:28.988Z,100553.73
2018-05-09T04:31:55.010Z,100552.20
2018-05-09T04:34:21.154Z,100550.17
2018-05-09T04:36:47.173Z,100550.69
2018-05-09T04:39:13.284Z,100548.05
2018-05-09T04:41:39.659Z,100541.14
2018-05-09T04:44:05.695Z,100539.28
2018-05-09T04:46:31.723Z,100541.18
2018-05-09T04:48:58.098Z,100548.04
2018-05-09T04:51:24.120Z,100540.44
2018-05-09T04:53:50.180Z,100533.89
2018-05-09T04:56:16.195Z,100538.34
2018-05-09T04:58:42.407Z,100543.25
2018-05-09T05:01:08.408Z,100544.45
2018-05-09T05:03:34.480Z,100540.17
2018-05-09T05:06:00.607Z,100533.94
2018-05-09T05:08:26.716Z,100531.09
2018-05-09T05:10:52.991Z,100528.70
2018-05-09T05:13:20.967Z,100528.91
2018-05-09T05:15:47.691Z,100526.99
2018-05-09T05:18:14.096Z,100527.59
2018-05-09T05:20:40.286Z,100529.62
2018-05-09T05:23:06.670Z,100514.30
2018-05-09T05:25:33.842Z,100519.41
2018-05-09T05:27:59.979Z,100517.90
2018-05-09T05:30:27.392Z,100527.28
2018-05-09T05:32:54.997Z,100524.56
2018-05-09T05:35:21.005Z,100534.26
2018-05-09T05:37:47.028Z,100542.95
2018-05-09T05:40:13.296Z,100550.52
2018-05-09T05:42:39.405Z,100560.85
2018-05-09T05:45:05.591Z,100555.33
2018-05-09T05:47:32.272Z,100552.53
2018-05-09T05:49:58.377Z,100556.93
2018-05-09T05:52:24.644Z,100562.92
2018-05-09T05:54:50.828Z,100560.26
2018-05-09T05:57:16.997Z,100562.72
2018-05-09T05:59:43.010Z,100560.17
2018-05-09T06:02:09.037Z,100567.45
2018-05-09T06:04:35.053Z,100571.41
2018-05-09T06:07:01.198Z,100569.06
2018-05-09T06:09:27.173Z,100571.34
2018-05-09T06:11:53.197Z,100574.34
2018-05-09T06:14:19.233Z,100570.86
2018-05-09T06:16:45.268Z,100570.81
2018-05-09T06:19:11.312Z,100573.48
2018-05-09T06:21:37.320Z,100572.45
2018-05-09T06:24:03.461Z,100573.05
2018-05-09T06:26:29.371Z,100576.08
2018-05-09T06:28:55.385Z,100574.92
2018-05-09T06:31:21.398Z,100570.52
2018-05-09T06:33:47.430Z,100567.25
2018-05-09T06:36:13.461Z,100562.45
2018-05-09T06:38:39.497Z,100558.87
2018-05-09T06:41:05.521Z,100553.67
2018-05-09T06:43:31.575Z,100555.02
2018-05-09T06:45:57.599Z,100564.66
2018-05-09T06:48:23.628Z,100563.79
2018-05-09T06:50:49.654Z,100574.71
2018-05-09T06:53:15.739Z,100577.62
2018-05-09T06:55:41.792Z,100570.16
2018-05-09T06:58:07.798Z,100571.58
2018-05-09T07:00:33.849Z,100570.43
2018-05-09T07:02:59.893Z,100572.61
2018-05-09T07:05:25.913Z,100575.47
2018-05-09T07:07:51.920Z,100581.10
2018-05-09T07:10:17.949Z,100575.79
2018-05-09T07:12:44.674Z,100582.09
2018-05-09T07:15:10.773Z,100583.71
2018-05-09T07:17:36.854Z,100582.30
2018-05-09T07:20:02.973Z,100583.80
2018-05-09T07:22:28.974Z,100590.77
2018-05-09T07:24:55.005Z,100587.49
2018-05-09T07:27:21.684Z,100584.56
2018-05-09T07:29:47.760Z,100587.20
2018-05-09T07:32:13.793Z,100590.85
2018-05-09T07:34:39.815Z,100590.93
2018-05-09T07:37:05.806Z,100591.66
2018-05-09T07:39:31.800Z,100588.00
2018-05-09T07:41:57.823Z,100591.30
2018-05-09T07:44:23.868Z,100599.33
2018-05-09T07:46:49.971Z,100595.56
2018-05-09T07:49:16.010Z,100591.16
2018-05-09T07:51:42.132Z,100591.66
2018-05-09T07:54:08.205Z,100592.12
2018-05-09T07:56:34.433Z,100591.11
2018-05-09T07:59:00.461Z,100591.45
2018-05-09T08:01:26.540Z,100594.11
2018-05-09T08:03:52.899Z,100593.16
2018-05-09T08:06:19.028Z,100594.55
2018-05-09T08:08:45.143Z,100602.64
2018-05-09T08:11:11.185Z,100599.85
2018-05-09T08:13:37.201Z,100603.72
2018-05-09T08:16:04.253Z,100597.44
2018-05-09T08:18:30.272Z,100593.09
2018-05-09T08:20:56.377Z,100594.45
2018-05-09T08:23:22.417Z,100597.11
2018-05-09T08:25:48.428Z,100603.05
2018-05-09T08:28:14.561Z,100608.42
2018-05-09T08:30:40.624Z,100612.61
2018-05-09T08:33:07.114Z,100608.22
2018-05-09T08:35:33.136Z,100608.81
2018-05-09T08:37:59.242Z,100600.81
2018-05-09T08:40:25.275Z,100609.52
2018-05-09T08:42:51.329Z,100605.18
2018-05-09T08:45:17.416Z,100609.97
2018-05-09T08:47:43.488Z,100612.47
2018-05-09T08:50:09.528Z,100618.81
2018-05-09T08:52:35.551Z,100618.38
2018-05-09T08:55:01.604Z,100616.78
2018-05-09T08:57:27.637Z,100614.53
2018-05-09T08:59:53.654Z,100616.28
2018-05-09T09:02:19.699Z,100612.88
2018-05-09T09:04:45.711Z,100612.47
2018-05-09T09:07:11.739Z,100618.69
2018-05-09T09:09:37.789Z,100625.17
2018-05-09T09:12:03.803Z,100623.56
2018-05-09T09:14:30.013Z,100629.63
2018-05-09T09:16:56.077Z,100633.27
2018-05-09T09:19:22.280Z,100626.81
2018-05-09T09:21:48.400Z,100633.64
2018-05-09T09:24:14.590Z,100632.41
2018-05-09T09:26:40.712Z,100635.62
2018-05-09T09:29:06.831Z,100631.70
2018-05-09T09:31:32.820Z,100640.41
2018-05-09T09:33:58.833Z,100646.33
2018-05-09T09:36:25.186Z,100640.31
2018-05-09T09:38:51.189Z,100642.75
2018-05-09T09:41:17.465Z,100646.30
2018-05-09T09:43:43.501Z,100639.77
2018-05-09T09:46:09.521Z,100644.31
2018-05-09T09:48:35.540Z,100643.31
2018-05-09T09:51:01.648Z,100640.37
2018-05-09T09:53:27.679Z,100646.91
2018-05-09T09:55:53.731Z,100641.57
2018-05-09T09:58:19.737Z,100645.23
2018-05-09T10:00:45.818Z,100642.17
2018-05-09T10:03:11.870Z,100642.74
2018-05-09T10:05:37.896Z,100642.01
2018-05-09T10:08:04.017Z,100643.31
2018-05-09T10:10:29.976Z,100645.45
2018-05-09T10:12:55.976Z,100647.51
2018-05-09T10:15:21.988Z,100632.11
2018-05-09T10:17:48.154Z,100639.39
2018-05-09T10:20:14.300Z,100632.53
2018-05-09T10:22:40.455Z,100630.47
2018-05-09T10:25:06.680Z,100629.48
2018-05-09T10:27:32.819Z,100633.78
2018-05-09T10:29:58.827Z,100637.82
2018-05-09T10:32:24.891Z,100632.64
2018-05-09T10:34:51.928Z,100635.36
2018-05-09T10:37:17.933Z,100632.01
2018-05-09T10:39:44.027Z,100636.85
2018-05-09T10:42:10.421Z,100634.22
2018-05-09T10:44:36.490Z,100625.77
2018-05-09T10:47:03.166Z,100624.95
2018-05-09T10:49:29.169Z,100626.84
2018-05-09T10:51:55.214Z,100637.30
2018-05-09T10:54:21.232Z,100632.38
2018-05-09T10:56:47.257Z,100631.91
2018-05-09T10:59:13.600Z,100636.64
2018-05-09T11:01:39.999Z,100637.23
2018-05-09T11:04:06.321Z,100635.64
2018-05-09T11:06:32.907Z,100637.84
2018-05-09T11:08:58.931Z,100639.20
2018-05-09T11:11:25.023Z,100632.91
2018-05-09T11:13:51.142Z,100634.94
2018-05-09T11:16:17.310Z,100640.16
2018-05-09T11:18:43.320Z,100634.06
2018-05-09T11:21:09.419Z,100640.15
2018-05-09T11:23:35.409Z,100639.64
2018-05-09T11:26:01.454Z,100630.48
2018-05-09T11:28:27.488Z,100635.11
2018-05-09T11:30:53.575Z,100638.97
2018-05-09T11:33:19.799Z,100625.09
2018-05-09T11:35:45.860Z,100625.42
2018-05-09T11:38:12.324Z,100626.00
2018-05-09T11:40:38.320Z,100629.28
2018-05-09T11:43:04.473Z,100636.67
2018-05-09T11:45:30.555Z,100636.06
2018-05-09T11:47:56.582Z,100634.78
2018-05-09T11:50:22.601Z,100628.59
2018-05-09T11:52:49.284Z,100629.44
2018-05-09T11:55:15.333Z,100627.69
2018-05-09T11:57:41.414Z,100615.84
2018-05-09T12:00:07.440Z,100612.06
2018-05-09T12:02:33.547Z,100604.75
2018-05-09T12:04:59.605Z,100600.76
2018-05-09T12:07:25.617Z,100598.36
2018-05-09T12:09:51.615Z,100604.64
2018-05-09T12:12:17.668Z,100605.69
2018-05-09T12:14:43.661Z,100603.07
2018-05-09T12:17:09.675Z,100605.16
2018-05-09T12:19:35.785Z,100610.89
2018-05-09T12:22:01.840Z,100607.41
2018-05-09T12:24:28.535Z,100609.88
2018-05-09T12:26:54.583Z,100606.20
2018-05-09T12:29:20.632Z,100610.27
2018-05-09T12:31:46.682Z,100612.80
2018-05-09T12:34:12.738Z,100609.88
2018-05-09T12:36:38.862Z,100608.88
2018-05-09T12:39:04.889Z,100611.38
2018-05-09T12:41:30.978Z,100608.95
2018-05-09T12:43:57.106Z,100605.93
2018-05-09T12:46:23.100Z,100610.20
2018-05-09T12:48:49.148Z,100608.80
2018-05-09T12:51:15.148Z,100600.02
2018-05-09T12:53:41.326Z,100609.33
2018-05-09T12:56:07.424Z,100606.10
2018-05-09T12:58:33.466Z,100604.05
2018-05-09T13:00:59.558Z,100608.16
2018-05-09T13:03:26.229Z,100604.48
2018-05-09T13:05:52.459Z,100608.97
2018-05-09T13:08:18.586Z,100606.26
2018-05-09T13:10:44.640Z,100603.45
2018-05-09T13:13:10.830Z,100611.99
2018-05-09T13:15:36.848Z,100607.84
2018-05-09T13:18:03.120Z,100596.23
2018-05-09T13:20:29.142Z,100590.24
2018-05-09T13:22:55.207Z,100592.58
2018-05-09T13:25:21.288Z,100589.66
2018-05-09T13:27:47.490Z,100592.00
2018-05-09T13:30:13.576Z,100591.64
2018-05-09T13:32:39.671Z,100583.15
2018-05-09T13:35:05.861Z,100578.08
2018-05-09T13:37:32.592Z,100586.48
2018-05-09T13:39:58.781Z,100583.98
2018-05-09T13:42:24.830Z,100580.97
2018-05-09T13:44:50.899Z,100580.34
2018-05-09T13:47:16.963Z,100581.42
2018-05-09T13:49:43.147Z,100587.14
2018-05-09T13:52:09.192Z,100583.34
2018-05-09T13:54:35.299Z,100581.59
2018-05-09T13:57:01.357Z,100585.45
2018-05-09T13:59:27.401Z,100581.56
2018-05-09T14:01:53.437Z,100579.00
2018-05-09T14:04:19.446Z,100579.83
2018-05-09T14:06:45.470Z,100579.58
2018-05-09T14:09:11.545Z,100590.61
2018-05-09T14:11:37.644Z,100588.23
2018-05-09T14:14:03.663Z,100582.55
2018-05-09T14:16:29.686Z,100573.98
2018-05-09T14:18:55.772Z,100576.49
2018-05-09T14:21:21.917Z,100584.08
2018-05-09T14:23:48.133Z,100586.58
2018-05-09T14:26:14.361Z,100584.13
2018-05-09T14:28:40.520Z,100579.79
2018-05-09T14:31:06.517Z,100588.75
2018-05-09T14:33:32.729Z,100591.70
2018-05-09T14:35:58.809Z,100591.45
2018-05-09T14:38:24.872Z,100585.91
2018-05-09T14:40:50.932Z,100581.05
2018-05-09T14:43:16.951Z,100588.61
2018-05-09T14:45:43.150Z,100574.02
2018-05-09T14:48:09.178Z,100574.52
2018-05-09T14:50:35.255Z,100578.11
2018-05-09T14:53:01.380Z,100573.30
2018-05-09T14:55:27.445Z,100579.78
2018-05-09T14:57:53.534Z,100574.73
2018-05-09T15:00:19.837Z,100572.21
2018-05-09T15:02:45.797Z,100565.64
2018-05-09T15:05:11.835Z,100561.12
2018-05-09T15:07:37.829Z,100560.75
2018-05-09T15:10:03.830Z,100554.67
2018-05-09T15:12:29.836Z,100553.31
2018-05-09T15:14:55.908Z,100550.88
2018-05-09T15:17:22.056Z,100547.94
2018-05-09T15:19:48.156Z,100551.61
2018-05-09T15:22:14.297Z,100548.23
2018-05-09T15:24:41.243Z,100550.48
2018-05-09T15:27:07.255Z,100555.10
2018-05-09T15:29:33.301Z,100556.13
2018-05-09T15:31:59.325Z,100552.47
2018-05-09T15:34:25.361Z,100548.95
2018-05-09T15:36:51.397Z,100545.65
2018-05-09T15:39:17.430Z,100537.44
2018-05-09T15:41:43.484Z,100533.62
2018-05-09T15:44:09.491Z,100537.53
2018-05-09T15:46:36.796Z,100529.06
2018-05-09T15:49:04.321Z,100533.84
2018-05-09T15:51:30.640Z,100530.39
2018-05-09T15:53:56.673Z,100529.30
2018-05-09T15:56:22.825Z,100532.92
2018-05-09T15:58:48.922Z,100532.36
2018-05-09T16:01:15.085Z,100537.14
2018-05-09T16:03:41.172Z,100533.91
2018-05-09T16:06:07.492Z,100536.55
2018-05-09T16:08:33.524Z,100531.61
2018-05-09T16:10:59.545Z,100537.36
2018-05-09T16:13:25.624Z,100535.88
2018-05-09T16:15:51.621Z,100539.96
2018-05-09T16:18:17.619Z,100528.86
2018-05-09T16:20:43.661Z,100524.57
2018-05-09T16:23:09.725Z,100530.18
2018-05-09T16:25:35.729Z,100521.95
2018-05-09T16:28:01.751Z,100527.57
2018-05-09T16:30:27.862Z,100522.96
2018-05-09T16:32:53.884Z,100522.03
2018-05-09T16:35:19.928Z,100523.77
2018-05-09T16:37:46.024Z,100520.75
2018-05-09T16:40:12.047Z,100522.09
2018-05-09T16:42:38.080Z,100523.97
2018-05-09T16:45:04.101Z,100521.72
2018-05-09T16:47:30.133Z,100529.59
2018-05-09T16:49:56.174Z,100528.73
2018-05-09T16:52:22.206Z,100533.83
2018-05-09T16:54:48.233Z,100531.53
2018-05-09T16:57:14.252Z,100535.83
2018-05-09T16:59:41.122Z,100531.98
2018-05-09T17:02:07.132Z,100533.28
2018-05-09T17:04:33.145Z,100532.34
2018-05-09T17:06:59.235Z,100527.48
2018-05-09T17:09:25.244Z,100531.82
2018-05-09T17:11:51.281Z,100527.08
2018-05-09T17:14:17.390Z,100535.44
2018-05-09T17:16:43.431Z,100527.42
2018-05-09T17:19:09.491Z,100529.52
2018-05-09T17:21:39.272Z,100523.23
2018-05-09T17:24:05.391Z,100519.71
2018-05-09T17:26:31.444Z,100519.83
2018-05-09T17:28:57.546Z,100526.16
2018-05-09T17:31:23.563Z,100529.90
2018-05-09T17:33:49.564Z,100526.12
2018-05-09T17:36:15.679Z,100515.31
2018-05-09T17:38:41.708Z,100528.83
2018-05-09T17:41:07.752Z,100528.84
2018-05-09T17:43:33.752Z,100523.67
2018-05-09T17:45:59.782Z,100521.17
2018-05-09T17:48:25.848Z,100523.19
2018-05-09T17:50:51.958Z,100522.92
2018-05-09T17:53:17.957Z,100518.72
2018-05-09T17:55:44.021Z,100518.55
2018-05-09T17:58:10.038Z,100519.48
2018-05-09T18:00:36.066Z,100513.10
2018-05-09T18:03:02.099Z,100516.03
2018-05-09T18:05:28.187Z,100514.78
2018-05-09T18:07:54.233Z,100517.36
2018-05-09T18:10:20.878Z,100517.78
2018-05-09T18:12:46.973Z,100520.81
2018-05-09T18:15:13.012Z,100519.98
2018-05-09T18:17:45.813Z,100525.97
2018-05-09T18:20:11.930Z,100528.22
2018-05-09T18:22:38.015Z,100523.18
2018-05-09T18:25:04.412Z,100522.05
2018-05-09T18:27:30.506Z,100520.09
2018-05-09T18:29:56.575Z,100517.36
2018-05-09T18:32:22.607Z,100516.09
2018-05-09T18:34:48.695Z,100519.33
2018-05-09T18:37:14.826Z,100528.89
2018-05-09T18:39:40.929Z,100533.11
2018-05-09T18:42:06.958Z,100539.56
2018-05-09T18:44:33.065Z,100537.70
2018-05-09T18:46:59.186Z,100540.01
2018-05-09T18:49:25.274Z,100536.69
2018-05-09T18:51:51.305Z,100543.66
2018-05-09T18:54:17.343Z,100542.20
2018-05-09T18:56:43.411Z,100540.06
2018-05-09T18:59:09.411Z,100545.36
2018-05-09T19:01:35.461Z,100544.93
2018-05-09T19:04:01.477Z,100553.14
2018-05-09T19:06:27.545Z,100550.42
2018-05-09T19:08:53.541Z,100551.63
2018-05-09T19:11:19.627Z,100544.16
2018-05-09T19:13:45.672Z,100552.04
2018-05-09T19:16:11.731Z,100546.50
2018-05-09T19:18:37.783Z,100549.28
2018-05-09T19:21:03.858Z,100538.66
2018-05-09T19:23:29.937Z,100542.59
2018-05-09T19:25:56.127Z,100546.30
2018-05-09T19:28:22.173Z,100549.23
2018-05-09T19:30:48.264Z,100551.01
2018-05-09T19:33:14.342Z,100549.95
2018-05-09T19:35:40.408Z,100552.34
2018-05-09T19:38:06.535Z,100553.09
2018-05-09T19:40:32.658Z,100551.98
2018-05-09T19:42:58.671Z,100561.00
2018-05-09T19:45:24.816Z,100561.34
2018-05-09T19:47:50.911Z,100564.53
2018-05-09T19:50:17.919Z,100561.89
2018-05-09T19:52:44.643Z,100565.42
2018-05-09T19:55:10.776Z,100567.13
2018-05-09T19:57:37.277Z,100571.23
2018-05-09T20:00:03.424Z,100582.63
2018-05-09T20:02:29.510Z,100588.50
2018-05-09T20:04:55.569Z,100589.73
2018-05-09T20:07:21.636Z,100586.06
2018-05-09T20:09:47.704Z,100590.23
2018-05-09T20:12:13.780Z,100589.83
2018-05-09T20:14:39.797Z,100591.09
2018-05-09T20:17:06.165Z,100595.22
2018-05-09T20:19:32.621Z,100591.61
2018-05-09T20:21:58.929Z,100592.85
2018-05-09T20:24:25.112Z,100593.45
2018-05-09T20:26:51.144Z,100598.55
2018-05-09T20:29:17.168Z,100594.98
2018-05-09T20:31:56.957Z,100596.28
2018-05-09T20:34:23.043Z,100590.73
2018-05-09T20:36:49.074Z,100593.16
2018-05-09T20:39:15.198Z,100593.18
2018-05-09T20:41:41.400Z,100595.55
2018-05-09T20:44:07.435Z,100594.51
2018-05-09T20:46:33.502Z,100590.98
2018-05-09T20:48:59.566Z,100589.69
2018-05-09T20:51:37.764Z,100594.13
2018-05-09T20:54:03.798Z,100599.78
2018-05-09T20:56:29.853Z,100592.95
2018-05-09T20:58:55.922Z,100593.28
2018-05-09T21:01:34.714Z,100597.82
2018-05-09T21:04:00.906Z,100598.42
2018-05-09T21:06:26.978Z,100602.81
2018-05-09T21:08:52.997Z,100598.01
2018-05-09T21:11:19.055Z,100601.34
2018-05-09T21:13:45.158Z,100605.76
2018-05-09T21:16:11.176Z,100609.05
2018-05-09T21:18:37.252Z,100608.39
2018-05-09T21:21:03.273Z,100602.31
2018-05-09T21:23:29.400Z,100607.61
2018-05-09T21:25:55.449Z,100603.51
2018-05-09T21:28:21.498Z,100608.95
2018-05-09T21:30:47.539Z,100603.60
2018-05-09T21:33:13.597Z,100614.44
2018-05-09T21:35:39.597Z,100613.00
2018-05-09T21:38:05.589Z,100612.86
2018-05-09T21:40:31.704Z,100615.99
2018-05-09T21:42:57.749Z,100612.33
2018-05-09T21:45:23.749Z,100614.90
2018-05-09T21:47:57.022Z,100611.09
2018-05-09T21:50:23.049Z,100616.03
2018-05-09T21:52:49.099Z,100612.01
2018-05-09T21:55:15.181Z,100610.02
2018-05-09T21:57:41.198Z,100606.73
2018-05-09T22:00:07.234Z,100608.34
2018-05-09T22:02:33.303Z,100609.44
2018-05-09T22:04:59.393Z,100607.63
2018-05-09T22:07:25.616Z,100604.41
2018-05-09T22:09:51.626Z,100616.81
2018-05-09T22:12:17.638Z,100611.62
2018-05-09T22:14:44.795Z,100613.83
2018-05-09T22:17:10.852Z,100610.13
2018-05-09T22:19:37.689Z,100605.66
2018-05-09T22:22:03.699Z,100606.82
2018-05-09T22:24:29.748Z,100608.58
2018-05-09T22:26:55.967Z,100609.83
2018-05-09T22:29:22.029Z,100610.88
2018-05-09T22:31:48.062Z,100608.84
2018-05-09T22:34:14.124Z,100602.55
2018-05-09T22:36:40.161Z,100603.13
2018-05-09T22:39:06.389Z,100600.20
2018-05-09T22:41:32.500Z,100601.04
2018-05-09T22:43:58.612Z,100599.25
2018-05-09T22:46:24.640Z,100600.03
2018-05-09T22:48:51.292Z,100590.34
2018-05-09T22:51:17.524Z,100587.65
2018-05-09T22:53:43.556Z,100587.95
2018-05-09T22:56:09.658Z,100592.72
2018-05-09T22:58:35.723Z,100592.33
2018-05-09T23:01:01.807Z,100582.64
2018-05-09T23:03:27.834Z,100572.42
2018-05-09T23:05:53.862Z,100575.70
2018-05-09T23:08:19.897Z,100575.70
2018-05-09T23:10:45.897Z,100581.62
2018-05-09T23:13:11.899Z,100572.92
2018-05-09T23:15:37.990Z,100572.16
2018-05-09T23:18:03.993Z,100565.65
2018-05-09T23:20:29.983Z,100569.37
2018-05-09T23:22:55.992Z,100571.13
2018-05-09T23:25:22.000Z,100565.17
2018-05-09T23:27:48.032Z,100570.14
2018-05-09T23:30:14.081Z,100564.48
2018-05-09T23:32:40.102Z,100560.69
2018-05-09T23:35:06.101Z,100562.39
2018-05-09T23:37:32.117Z,100565.27
2018-05-09T23:39:58.128Z,100563.48
2018-05-09T23:42:24.160Z,100564.61
2018-05-09T23:44:50.216Z,100553.09
2018-05-09T23:47:16.819Z,100556.27
2018-05-09T23:49:42.990Z,100557.05
2018-05-09T23:52:09.087Z,100555.84
2018-05-09T23:54:35.097Z,100553.78
2018-05-09T23:57:01.409Z,100554.73
2018-05-09T23:59:27.513Z,100549.55
